Impacts TAF Board INFO
FOR SITUATIONAL AWARENESS. NOT TO BE USED FOR FLIGHT PLANNING PURPOSES.
IDs:

KBWI - Baltimore-Washington, MD, US

Issued at 1139 UTC 16 Dec 2017
Updated at 1253 UTC 16 Dec 2017
Potential Impact None Slight Moderate High
Time1154Z 16/13Z 16/14Z 16/15Z 16/16Z 16/17Z 16/18Z 16/19Z 16/20Z 16/21Z 16/22Z 16/23Z 17/00Z 17/01Z>>
Type OBS PRVL PRVL PRVL PRVL PRVL PRVL PRVL PRVL PRVL PRVL PRVL PRVL PRVL
VIS 9 >6 >6 >6 >6 >6 >6 >6 >6 >6 >6 >6 >6 >6
CIG -- -- -- -- -- -- 90 90 90 -- -- -- -- --
Cover FEW FEW SCT SCT SCT SCT BKN BKN BKN SCT SCT SCT SCT FEW
FltCat VFR VFR VFR VFR VFR VFR VFR VFR VFR VFR VFR VFR VFR VFR
WX -- -- -- -- -- -- -- -- -- -- -- -- -- --
WDir 200 220 240 240 240 240 250 250 250 240 240 240 240 260
WSpd 5 5 8 8 8 8 11 11 11 9 9 9 9 5
WGst -- -- -- -- -- -- 18 18 18 -- -- -- -- --

Raw TAF
KBWI 161139Z 1612/1718 22005KT P6SM FEW060
  FM161400 24008KT P6SM SCT100
  FM161800 25011G18KT P6SM BKN090
  FM162100 24009KT P6SM SCT100
  FM170100 26005KT P6SM FEW250
  FM171700 16004KT P6SM BKN150


Raw METAR
KBWI 161154Z 20005KT 9SM FEW060 FEW250 M03/M06 A3012 RMK AO2 SLP200 4/001 70010 I6001 T10331061 11033 21067 53015
KBWI 161054Z 20005KT 9SM FEW060 M04/M06 A3011 RMK AO2 SLP197 T10391056
KBWI 160954Z 21007KT 9SM FEW065 M04/M06 A3008 RMK AO2 SLP186 T10391056

METAR Board
Radar Display
Forecast Discussion

FOR SITUATIONAL AWARENESS. NOT TO BE USED FOR FLIGHT PLANNING PURPOSES.